createdAt,value
2023-01-13T00:00:04.880Z,70.30
2023-01-13T00:02:31.396Z,71.05
2023-01-13T00:04:58.046Z,69.65
2023-01-13T00:07:25.876Z,69.57
2023-01-13T00:09:52.486Z,70.78
2023-01-13T00:12:19.053Z,71.05
2023-01-13T00:14:45.936Z,70.86
2023-01-13T00:17:12.530Z,70.74
2023-01-13T00:19:39.165Z,70.05
2023-01-13T00:22:06.566Z,70.82
2023-01-13T00:24:33.409Z,69.33
2023-01-13T00:27:00.036Z,69.93
2023-01-13T00:29:26.585Z,68.94
2023-01-13T00:31:53.226Z,68.43
2023-01-13T00:34:19.798Z,69.22
2023-01-13T00:36:46.933Z,69.33
2023-01-13T00:39:13.467Z,68.65
2023-01-13T00:42:00.476Z,68.35
2023-01-13T00:44:27.045Z,69.59
2023-01-13T00:46:53.601Z,69.26
2023-01-13T00:49:20.301Z,68.79
2023-01-13T00:51:46.893Z,69.23
2023-01-13T00:54:13.469Z,68.48
2023-01-13T00:56:41.430Z,68.07
2023-01-13T00:59:11.330Z,67.43
2023-01-13T01:01:38.274Z,67.59
2023-01-13T01:04:05.263Z,66.87
2023-01-13T01:06:31.952Z,68.08
2023-01-13T01:08:58.896Z,67.81
2023-01-13T01:11:29.787Z,68.01
2023-01-13T01:13:58.912Z,68.38
2023-01-13T01:16:28.072Z,66.70
2023-01-13T01:18:55.439Z,67.91
2023-01-13T01:21:24.168Z,67.85
2023-01-13T01:23:51.051Z,66.27
2023-01-13T01:26:20.710Z,67.75
2023-01-13T01:28:47.877Z,66.43
2023-01-13T01:31:19.342Z,67.97
2023-01-13T01:33:47.675Z,66.36
2023-01-13T01:36:16.218Z,67.29
2023-01-13T01:38:43.421Z,66.33
2023-01-13T01:41:15.721Z,66.76
2023-01-13T01:57:17.159Z,66.21
2023-01-13T01:59:44.703Z,66.84
2023-01-13T02:02:11.923Z,66.07
2023-01-13T02:04:41.059Z,67.56
2023-01-13T02:07:08.197Z,67.42
2023-01-13T02:09:36.603Z,67.00
2023-01-13T02:12:23.175Z,66.99
2023-01-13T02:14:49.862Z,67.49
2023-01-13T02:25:55.790Z,67.63
2023-01-13T02:31:30.147Z,65.84
2023-01-13T02:36:59.029Z,67.17
2023-01-13T02:39:34.823Z,67.59
2023-01-13T02:42:35.097Z,67.57
2023-01-13T02:45:10.826Z,67.87
2023-01-13T02:47:39.440Z,66.26
2023-01-13T02:50:12.302Z,66.38
2023-01-13T02:52:48.997Z,67.72
2023-01-13T02:55:20.859Z,67.23
2023-01-13T02:57:49.459Z,66.46
2023-01-13T03:00:18.612Z,67.15
2023-01-13T03:02:45.329Z,66.53
2023-01-13T03:05:16.999Z,66.96
2023-01-13T03:10:56.175Z,66.86
2023-01-13T03:21:59.453Z,67.37
2023-01-13T03:24:35.010Z,68.17
2023-01-13T03:27:10.871Z,66.49
2023-01-13T03:29:42.832Z,67.52
2023-01-13T03:32:16.496Z,66.52
2023-01-13T03:34:50.111Z,66.70
2023-01-13T03:37:21.477Z,67.55
2023-01-13T03:39:54.432Z,67.84
2023-01-13T03:42:25.017Z,67.28
2023-01-13T03:45:14.816Z,67.70
2023-01-13T03:47:49.451Z,66.86
2023-01-13T03:50:28.387Z,67.75
2023-01-13T03:53:10.011Z,67.54
2023-01-13T03:55:43.609Z,67.07
2023-01-13T03:58:16.994Z,67.38
2023-01-13T04:00:50.239Z,68.60
2023-01-13T04:03:26.971Z,67.25
2023-01-13T04:06:00.071Z,67.08
2023-01-13T04:08:28.764Z,68.74
2023-01-13T04:13:41.686Z,69.19
2023-01-13T04:16:10.355Z,67.79
2023-01-13T04:18:38.892Z,67.35
2023-01-13T04:21:06.662Z,67.49
2023-01-13T04:23:33.728Z,67.48
2023-01-13T04:26:00.348Z,68.97
2023-01-13T04:28:26.915Z,67.54
2023-01-13T04:30:53.758Z,68.92
2023-01-13T04:33:20.714Z,68.58
2023-01-13T04:35:48.036Z,68.85
2023-01-13T04:38:17.423Z,68.59
2023-01-13T04:40:44.471Z,68.59
2023-01-13T04:43:11.103Z,67.74
2023-01-13T04:45:37.748Z,67.52
2023-01-13T04:48:04.916Z,67.76
2023-01-13T04:50:31.514Z,69.48
2023-01-13T04:52:58.131Z,68.30
2023-01-13T04:55:25.279Z,68.54
2023-01-13T04:57:52.733Z,69.34
2023-01-13T05:00:21.577Z,68.45
2023-01-13T05:02:50.899Z,69.22
2023-01-13T05:05:18.678Z,68.44
2023-01-13T05:07:45.369Z,68.85
2023-01-13T05:10:12.109Z,69.74
2023-01-13T05:12:58.625Z,68.92
2023-01-13T05:15:45.403Z,69.62
2023-01-13T05:18:13.027Z,68.43
2023-01-13T05:20:39.795Z,70.20
2023-01-13T05:23:26.444Z,68.93
2023-01-13T05:25:53.178Z,68.97
2023-01-13T05:28:19.745Z,68.75
2023-01-13T05:30:47.315Z,68.94
2023-01-13T05:33:18.216Z,68.78
2023-01-13T05:35:47.211Z,69.95
2023-01-13T05:38:14.324Z,70.55
2023-01-13T05:41:01.650Z,70.77
2023-01-13T05:43:28.576Z,70.26
2023-01-13T05:48:42.183Z,69.28
2023-01-13T05:51:11.661Z,70.52
2023-01-13T05:53:40.802Z,70.01
2023-01-13T05:56:08.492Z,70.87
2023-01-13T05:58:35.242Z,69.14
2023-01-13T06:01:06.292Z,69.85
2023-01-13T06:03:33.210Z,69.87
2023-01-13T06:06:01.918Z,70.77
2023-01-13T06:08:29.513Z,70.71
2023-01-13T06:10:58.239Z,71.01
2023-01-13T06:13:26.339Z,69.54
2023-01-13T06:15:58.389Z,71.06
2023-01-13T06:18:25.514Z,70.46
2023-01-13T06:20:52.124Z,69.97
2023-01-13T06:23:19.077Z,70.10
2023-01-13T06:26:08.556Z,70.47
2023-01-13T06:28:35.610Z,69.50
2023-01-13T06:31:07.424Z,70.63
2023-01-13T06:33:38.463Z,71.01
2023-01-13T06:36:12.213Z,71.28
2023-01-13T06:38:43.293Z,70.60
2023-01-13T06:41:10.180Z,71.09
2023-01-13T06:43:39.039Z,70.24
2023-01-13T06:46:05.903Z,69.82
2023-01-13T06:48:35.202Z,70.67
2023-01-13T06:51:03.605Z,71.06
2023-01-13T06:53:30.224Z,70.52
2023-01-13T06:55:56.805Z,70.77
2023-01-13T06:58:23.438Z,70.10
2023-01-13T07:00:51.669Z,70.67
2023-01-13T07:03:19.399Z,70.31
2023-01-13T07:05:53.420Z,70.62
2023-01-13T07:08:20.534Z,71.41
2023-01-13T07:10:47.297Z,71.34
2023-01-13T07:13:33.866Z,71.61
2023-01-13T07:16:03.140Z,70.30
2023-01-13T07:18:32.315Z,70.57
2023-01-13T07:21:02.486Z,71.19
2023-01-13T07:23:32.404Z,71.57
2023-01-13T07:25:59.885Z,70.72
2023-01-13T07:28:27.877Z,71.63
2023-01-13T07:30:54.955Z,71.13
2023-01-13T07:33:22.039Z,71.97
2023-01-13T07:35:55.622Z,70.91
2023-01-13T07:38:22.169Z,72.13
2023-01-13T07:40:48.746Z,71.37
2023-01-13T07:43:35.229Z,70.99
2023-01-13T07:46:05.297Z,70.76
2023-01-13T07:48:34.682Z,71.36
2023-01-13T07:51:06.856Z,70.73
2023-01-13T07:53:34.562Z,70.48
2023-01-13T07:56:02.186Z,71.65
2023-01-13T07:58:29.655Z,71.93
2023-01-13T08:00:56.840Z,71.24
2023-01-13T08:03:24.068Z,70.50
2023-01-13T08:05:50.844Z,71.36
2023-01-13T08:08:18.138Z,72.34
2023-01-13T08:10:45.124Z,71.36
2023-01-13T08:15:51.577Z,72.22
2023-01-13T08:18:21.296Z,71.98
2023-01-13T08:20:49.390Z,71.68
2023-01-13T08:23:16.605Z,71.76
2023-01-13T08:25:43.390Z,70.73
2023-01-13T08:28:10.114Z,70.61
2023-01-13T08:30:36.882Z,71.07
2023-01-13T08:33:07.812Z,71.37
2023-01-13T08:35:37.695Z,70.79
2023-01-13T08:38:05.354Z,71.78
2023-01-13T08:40:32.560Z,71.32
2023-01-13T08:42:59.862Z,71.83
2023-01-13T08:45:26.451Z,70.64
2023-01-13T08:47:53.056Z,71.30
2023-01-13T08:50:19.875Z,71.55
2023-01-13T08:52:46.445Z,70.94
2023-01-13T08:55:13.022Z,70.09
2023-01-13T08:57:39.712Z,71.24
2023-01-13T09:00:08.683Z,71.90
2023-01-13T09:02:35.330Z,71.53
2023-01-13T09:05:03.967Z,71.31
2023-01-13T09:07:31.071Z,70.22
2023-01-13T09:09:57.666Z,70.21
2023-01-13T09:12:44.185Z,71.31
2023-01-13T09:15:11.545Z,70.06
2023-01-13T09:17:38.348Z,68.70
2023-01-13T09:20:05.825Z,68.18
2023-01-13T09:22:32.447Z,67.84
2023-01-13T09:24:59.225Z,67.86
2023-01-13T09:27:25.778Z,67.83
2023-01-13T09:29:52.340Z,67.86
2023-01-13T09:32:19.039Z,68.03
2023-01-13T09:35:01.384Z,67.81
2023-01-13T09:40:12.921Z,66.22
2023-01-13T09:48:06.994Z,67.61
2023-01-13T09:50:45.773Z,66.52
2023-01-13T09:53:21.203Z,66.06
2023-01-13T09:55:48.508Z,65.04
2023-01-13T09:58:17.583Z,64.35
2023-01-13T10:03:28.642Z,61.28
2023-01-13T10:06:00.159Z,60.41
2023-01-13T10:08:33.380Z,61.91
2023-01-13T10:11:24.679Z,61.13
2023-01-13T10:13:58.097Z,61.98
2023-01-13T10:16:36.743Z,61.41
2023-01-13T10:29:36.970Z,56.64
2023-01-13T10:32:03.698Z,56.27
2023-01-13T10:34:30.317Z,56.50
2023-01-13T10:39:46.371Z,55.44
2023-01-13T10:42:15.812Z,54.96
2023-01-13T10:53:01.254Z,54.13
2023-01-13T11:01:00.452Z,55.21
2023-01-13T11:03:36.508Z,56.42
2023-01-13T11:06:03.550Z,56.49
2023-01-13T11:08:41.305Z,56.19
2023-01-13T11:11:26.539Z,55.60
2023-01-13T11:14:16.698Z,57.13
2023-01-13T11:16:52.905Z,57.11
2023-01-13T11:19:23.552Z,56.38
2023-01-13T11:24:37.739Z,57.54
2023-01-13T11:30:09.905Z,58.56
2023-01-13T11:32:49.291Z,59.46
2023-01-13T11:35:20.589Z,58.83
2023-01-13T11:37:53.901Z,59.09
2023-01-13T11:40:36.486Z,60.00
2023-01-13T11:43:23.865Z,60.30
2023-01-13T11:45:57.433Z,60.17
2023-01-13T11:48:28.369Z,60.14
2023-01-13T12:02:15.132Z,60.63
2023-01-13T12:10:17.642Z,61.34
2023-01-13T12:12:54.731Z,61.16
2023-01-13T12:21:09.440Z,61.39
2023-01-13T12:26:16.571Z,62.03
2023-01-13T12:29:06.302Z,61.61
2023-01-13T12:31:35.905Z,62.06
2023-01-13T12:37:10.110Z,62.09
2023-01-13T12:40:02.568Z,62.07
2023-01-13T12:47:48.652Z,61.66
2023-01-13T12:53:01.261Z,62.07
2023-01-13T12:55:33.220Z,61.91
2023-01-13T13:03:29.259Z,62.65
2023-01-13T13:06:01.548Z,62.91
2023-01-13T13:08:45.363Z,62.51
2023-01-13T13:13:49.527Z,62.84
2023-01-13T13:22:19.233Z,62.13
2023-01-13T13:30:34.165Z,62.12
2023-01-13T13:36:19.979Z,62.43
2023-01-13T13:39:33.968Z,62.47
2023-01-13T13:42:31.596Z,61.84
2023-01-13T13:45:21.218Z,62.45
2023-01-13T13:47:47.601Z,62.22
2023-01-13T13:50:20.335Z,62.17
2023-01-13T13:53:08.455Z,62.46
2023-01-13T13:55:36.664Z,62.64
2023-01-13T13:58:03.184Z,63.03
2023-01-13T14:00:35.167Z,62.88
2023-01-13T14:03:07.722Z,62.49
2023-01-13T14:05:36.262Z,62.74
2023-01-13T14:10:43.213Z,62.37
2023-01-13T14:18:46.415Z,62.20
2023-01-13T14:21:30.083Z,62.12
2023-01-13T14:24:02.060Z,62.66
2023-01-13T14:26:32.267Z,62.68
2023-01-13T14:29:00.819Z,61.52
2023-01-13T14:31:28.211Z,62.21
2023-01-13T14:33:58.112Z,61.76
2023-01-13T14:36:36.960Z,61.77
2023-01-13T14:41:47.641Z,61.88
2023-01-13T14:46:54.179Z,61.83
2023-01-13T14:49:30.886Z,61.77
2023-01-13T14:52:16.480Z,61.84
2023-01-13T14:54:51.154Z,61.82
2023-01-13T14:57:35.225Z,61.87
2023-01-13T15:03:08.018Z,61.63
2023-01-13T15:05:37.082Z,61.50
2023-01-13T15:08:17.470Z,61.62
2023-01-13T15:10:55.485Z,61.76
2023-01-13T15:13:27.063Z,62.07
2023-01-13T15:15:57.000Z,61.81
2023-01-13T15:18:23.740Z,62.37
2023-01-13T15:20:51.104Z,62.45
2023-01-13T15:23:18.952Z,62.13
2023-01-13T15:25:46.982Z,62.76
2023-01-13T15:28:23.906Z,62.61
2023-01-13T15:30:52.086Z,62.11
2023-01-13T15:33:19.670Z,62.97
2023-01-13T15:35:48.726Z,63.09
2023-01-13T15:38:19.097Z,62.57
2023-01-13T15:40:46.477Z,63.00
2023-01-13T15:43:35.110Z,63.15
2023-01-13T15:46:24.168Z,63.42
2023-01-13T15:48:54.800Z,63.43
2023-01-13T15:51:21.703Z,63.55
2023-01-13T15:53:48.279Z,62.86
2023-01-13T15:56:23.515Z,63.56
2023-01-13T15:58:50.309Z,64.09
2023-01-13T16:01:17.143Z,63.57
2023-01-13T16:03:43.782Z,62.91
2023-01-13T16:06:18.533Z,63.65
2023-01-13T16:08:45.222Z,63.71
2023-01-13T16:11:12.557Z,62.99
2023-01-13T16:13:39.156Z,63.51
2023-01-13T16:16:17.966Z,62.83
2023-01-13T16:18:44.846Z,62.65
2023-01-13T16:21:13.127Z,62.89
2023-01-13T16:23:39.906Z,63.11
2023-01-13T16:26:14.213Z,63.00
2023-01-13T16:28:40.954Z,63.20
2023-01-13T16:31:18.461Z,63.59
2023-01-13T16:33:45.100Z,63.29
2023-01-13T16:36:15.223Z,63.42
2023-01-13T16:38:42.129Z,63.67
2023-01-13T16:41:08.722Z,63.48
2023-01-13T16:43:36.134Z,64.00
2023-01-13T16:46:16.413Z,64.19
2023-01-13T16:48:43.026Z,64.06
2023-01-13T16:51:09.568Z,64.55
2023-01-13T16:53:36.075Z,64.94
2023-01-13T16:56:02.915Z,65.31
2023-01-13T16:58:29.472Z,64.41
2023-01-13T17:00:56.071Z,64.63
2023-01-13T17:03:22.772Z,64.74
2023-01-13T17:05:49.511Z,65.38
2023-01-13T17:08:19.060Z,64.20
2023-01-13T17:10:46.650Z,64.91
2023-01-13T17:13:16.659Z,65.51
2023-01-13T17:15:44.631Z,64.27
2023-01-13T17:18:13.297Z,64.29
2023-01-13T17:20:40.570Z,65.95
2023-01-13T17:23:07.139Z,65.42
2023-01-13T17:25:33.691Z,65.77
2023-01-13T17:28:00.252Z,65.08
2023-01-13T17:30:26.901Z,65.92
2023-01-13T17:32:53.482Z,65.86
2023-01-13T17:35:24.677Z,65.37
2023-01-13T17:37:53.007Z,65.59
2023-01-13T17:40:19.901Z,66.47
2023-01-13T17:42:46.490Z,65.02
2023-01-13T17:45:13.082Z,66.62
2023-01-13T17:47:39.615Z,65.23
2023-01-13T17:50:06.609Z,66.27
2023-01-13T17:52:34.430Z,66.35
2023-01-13T17:55:01.107Z,65.98
2023-01-13T17:57:28.031Z,65.52
2023-01-13T17:59:54.849Z,65.81
2023-01-13T18:02:21.526Z,66.85
2023-01-13T18:04:48.137Z,65.98
2023-01-13T18:07:14.708Z,67.43
2023-01-13T18:09:41.295Z,66.82
2023-01-13T18:12:07.947Z,66.27
2023-01-13T18:14:34.994Z,66.99
2023-01-13T18:17:01.621Z,67.99
2023-01-13T18:19:48.139Z,67.80
2023-01-13T18:22:34.611Z,67.33
2023-01-13T18:25:22.054Z,66.93
2023-01-13T18:27:48.745Z,68.51
2023-01-13T18:30:15.458Z,67.61
2023-01-13T18:32:42.295Z,67.23
2023-01-13T18:35:10.540Z,68.35
2023-01-13T18:37:40.482Z,68.46
2023-01-13T18:40:09.982Z,67.78
2023-01-13T18:42:54.428Z,68.44
2023-01-13T18:45:24.562Z,67.38
2023-01-13T18:47:51.835Z,67.83
2023-01-13T18:50:18.940Z,68.19
2023-01-13T18:52:45.682Z,67.55
2023-01-13T18:55:12.420Z,67.83
2023-01-13T18:57:40.047Z,67.70
2023-01-13T19:00:10.433Z,68.18
2023-01-13T19:02:37.192Z,68.43
2023-01-13T19:05:04.094Z,67.98
2023-01-13T19:07:32.204Z,68.06
2023-01-13T19:09:59.761Z,67.66
2023-01-13T19:12:27.610Z,67.70
2023-01-13T19:14:55.246Z,69.19
2023-01-13T19:17:23.115Z,67.65
2023-01-13T19:19:52.321Z,69.02
2023-01-13T19:22:23.287Z,68.57
2023-01-13T19:24:50.762Z,69.20
2023-01-13T19:27:19.286Z,68.49
2023-01-13T19:29:52.471Z,68.58
2023-01-13T19:32:21.886Z,69.27
2023-01-13T19:34:51.021Z,68.60
2023-01-13T19:37:18.151Z,69.07
2023-01-13T19:39:44.767Z,69.53
2023-01-13T19:42:32.879Z,69.64
2023-01-13T19:45:19.574Z,68.81
2023-01-13T19:47:46.389Z,69.11
2023-01-13T19:50:13.744Z,68.80
2023-01-13T19:52:41.911Z,68.99
2023-01-13T19:55:09.824Z,69.32
2023-01-13T19:57:37.362Z,69.23
2023-01-13T20:00:06.571Z,69.16
2023-01-13T20:02:33.156Z,70.07
2023-01-13T20:05:04.422Z,69.77
2023-01-13T20:07:31.677Z,70.49
2023-01-13T20:09:58.411Z,69.43
2023-01-13T20:12:26.063Z,70.61
2023-01-13T20:14:52.840Z,69.63
2023-01-13T20:17:20.920Z,69.67
2023-01-13T20:19:47.870Z,69.76
2023-01-13T20:22:14.544Z,69.97
2023-01-13T20:24:41.123Z,70.25
2023-01-13T20:27:07.737Z,71.16
2023-01-13T20:29:34.822Z,70.93
2023-01-13T20:32:01.731Z,70.88
2023-01-13T20:34:28.406Z,69.95
2023-01-13T20:36:55.043Z,70.59
2023-01-13T20:39:25.517Z,71.17
2023-01-13T20:42:12.190Z,70.32
2023-01-13T20:44:38.848Z,70.42
2023-01-13T20:47:05.667Z,71.14
2023-01-13T20:49:32.513Z,70.40
2023-01-13T20:51:59.161Z,70.08
2023-01-13T20:54:26.271Z,70.63
2023-01-13T20:56:56.506Z,71.24
2023-01-13T20:59:23.081Z,69.97
2023-01-13T21:01:50.285Z,70.83
2023-01-13T21:04:16.886Z,71.01
2023-01-13T21:06:43.536Z,70.19
2023-01-13T21:09:10.316Z,70.22
2023-01-13T21:11:56.824Z,69.92
2023-01-13T21:14:45.754Z,70.03
2023-01-13T21:17:34.458Z,70.81
2023-01-13T21:20:02.304Z,70.92
2023-01-13T21:22:30.124Z,70.57
2023-01-13T21:24:57.957Z,70.85
2023-01-13T21:27:25.354Z,70.20
2023-01-13T21:29:51.933Z,70.12
2023-01-13T21:32:18.512Z,70.23
2023-01-13T21:34:45.133Z,71.18
2023-01-13T21:37:11.725Z,71.18
2023-01-13T21:39:38.328Z,71.80
2023-01-13T21:42:24.845Z,71.35
2023-01-13T21:45:11.319Z,70.87
2023-01-13T21:47:53.447Z,71.52
2023-01-13T21:50:23.522Z,71.21
2023-01-13T21:52:52.457Z,72.18
2023-01-13T21:55:21.505Z,71.92
2023-01-13T21:57:50.373Z,71.80
2023-01-13T22:00:19.330Z,71.73
2023-01-13T22:02:46.551Z,72.02
2023-01-13T22:05:15.390Z,71.37
2023-01-13T22:07:43.509Z,71.43
2023-01-13T22:10:13.786Z,73.08
2023-01-13T22:12:40.659Z,72.64
2023-01-13T22:15:08.401Z,72.52
2023-01-13T22:17:34.929Z,72.75
2023-01-13T22:20:01.616Z,72.74
2023-01-13T22:22:29.217Z,73.27
2023-01-13T22:24:55.844Z,74.04
2023-01-13T22:27:25.140Z,73.97
2023-01-13T22:29:52.735Z,73.99
2023-01-13T22:32:21.272Z,73.58
2023-01-13T22:34:48.075Z,73.86
2023-01-13T22:37:16.671Z,73.39
2023-01-13T22:39:43.315Z,73.30
2023-01-13T22:42:10.238Z,74.87
2023-01-13T22:44:36.824Z,74.27
2023-01-13T22:47:03.460Z,75.04
2023-01-13T22:49:30.066Z,75.68
2023-01-13T22:51:56.621Z,74.95
2023-01-13T22:54:23.394Z,75.51
2023-01-13T22:56:50.002Z,76.01
2023-01-13T22:59:16.683Z,75.01
2023-01-13T23:01:43.429Z,75.47
2023-01-13T23:04:13.115Z,74.97
2023-01-13T23:06:40.145Z,75.06
2023-01-13T23:09:07.638Z,76.11
2023-01-13T23:11:35.434Z,76.32
2023-01-13T23:14:04.822Z,76.37
2023-01-13T23:16:34.305Z,75.13
2023-01-13T23:19:01.152Z,76.33
2023-01-13T23:21:30.318Z,75.30
2023-01-13T23:23:58.776Z,75.28
2023-01-13T23:26:26.401Z,75.04
2023-01-13T23:28:53.297Z,75.12
2023-01-13T23:31:21.761Z,76.43
2023-01-13T23:33:49.200Z,76.36
2023-01-13T23:36:19.699Z,75.92
2023-01-13T23:38:46.692Z,76.75
2023-01-13T23:41:16.416Z,76.42
2023-01-13T23:43:43.179Z,76.03
2023-01-13T23:46:12.641Z,76.66
2023-01-13T23:48:39.649Z,75.58
2023-01-13T23:51:10.263Z,76.97
2023-01-13T23:53:40.417Z,76.25
2023-01-13T23:56:08.287Z,76.98
2023-01-13T23:58:35.273Z,76.99
